createdAt,value
2019-06-26T00:01:34.926Z,14.83
2019-06-26T00:03:40.012Z,15.63
2019-06-26T00:05:44.847Z,15.00
2019-06-26T00:07:50.698Z,15.57
2019-06-26T00:09:55.448Z,15.80
2019-06-26T00:12:00.154Z,15.00
2019-06-26T00:14:04.933Z,15.23
2019-06-26T00:16:09.780Z,14.80
2019-06-26T00:18:14.511Z,16.47
2019-06-26T00:20:19.268Z,16.03
2019-06-26T00:22:23.968Z,16.67
2019-06-26T00:24:29.696Z,15.77
2019-06-26T00:26:34.541Z,15.93
2019-06-26T00:28:39.308Z,16.10
2019-06-26T00:30:44.144Z,15.90
2019-06-26T00:32:48.974Z,16.27
2019-06-26T00:34:53.733Z,17.10
2019-06-26T00:36:58.478Z,16.50
2019-06-26T00:39:04.089Z,18.17
2019-06-26T00:41:10.212Z,16.70
2019-06-26T00:43:14.987Z,16.37
2019-06-26T00:45:19.754Z,17.27
2019-06-26T00:47:24.468Z,17.10
2019-06-26T00:49:29.226Z,16.53
2019-06-26T00:51:33.980Z,16.77
2019-06-26T00:53:38.785Z,16.40
2019-06-26T00:55:43.554Z,16.47
2019-06-26T00:57:48.228Z,17.57
2019-06-26T00:59:53.022Z,18.07
2019-06-26T01:01:57.768Z,16.87
2019-06-26T01:04:04.180Z,16.63
2019-06-26T01:06:10.535Z,15.27
2019-06-26T01:08:15.809Z,14.57
2019-06-26T01:10:22.212Z,15.43
2019-06-26T01:12:26.983Z,16.57
2019-06-26T01:14:31.800Z,16.97
2019-06-26T01:16:36.491Z,15.80
2019-06-26T01:18:41.271Z,16.93
2019-06-26T01:20:46.017Z,17.43
2019-06-26T01:22:50.691Z,16.27
2019-06-26T01:24:55.403Z,16.93
2019-06-26T01:27:00.159Z,16.37
2019-06-26T01:29:05.794Z,16.73
2019-06-26T01:31:10.581Z,15.50
2019-06-26T01:33:15.327Z,16.57
2019-06-26T01:35:20.071Z,16.77
2019-06-26T01:37:24.797Z,15.97
2019-06-26T01:39:29.667Z,14.87
2019-06-26T01:41:34.368Z,14.40
2019-06-26T01:43:39.061Z,14.23
2019-06-26T01:45:43.733Z,14.47
2019-06-26T01:47:48.441Z,15.13
2019-06-26T01:49:53.338Z,14.20
2019-06-26T01:51:59.107Z,13.20
2019-06-26T01:54:03.799Z,13.30
2019-06-26T01:56:08.489Z,13.80
2019-06-26T01:58:13.246Z,14.53
2019-06-26T02:00:17.957Z,13.27
2019-06-26T02:02:22.697Z,13.23
2019-06-26T02:04:27.417Z,13.30
2019-06-26T02:06:32.175Z,14.20
2019-06-26T02:08:36.925Z,13.73
2019-06-26T02:10:41.960Z,13.07
2019-06-26T02:12:46.729Z,12.87
2019-06-26T02:14:51.483Z,13.53
2019-06-26T02:16:56.259Z,12.60
2019-06-26T02:19:02.660Z,13.30
2019-06-26T02:21:07.385Z,12.63
2019-06-26T02:23:12.152Z,12.70
2019-06-26T02:25:16.843Z,12.30
2019-06-26T02:27:21.584Z,12.50
2019-06-26T02:29:26.375Z,11.97
2019-06-26T02:31:31.556Z,12.97
2019-06-26T02:33:36.499Z,12.13
2019-06-26T02:35:42.459Z,12.33
2019-06-26T02:37:47.148Z,12.60
2019-06-26T02:39:51.942Z,12.23
2019-06-26T02:41:56.695Z,13.00
2019-06-26T02:44:01.461Z,11.50
2019-06-26T02:46:06.217Z,13.93
2019-06-26T02:48:10.965Z,12.33
2019-06-26T02:50:15.738Z,12.00
2019-06-26T02:52:22.020Z,11.30
2019-06-26T02:54:26.770Z,11.47
2019-06-26T02:56:31.515Z,12.53
2019-06-26T02:58:36.215Z,11.90
2019-06-26T03:00:40.966Z,12.00
2019-06-26T03:02:45.723Z,11.00
2019-06-26T03:04:50.559Z,11.53
2019-06-26T03:06:55.270Z,11.90
2019-06-26T03:08:59.957Z,10.87
2019-06-26T03:11:04.748Z,12.13
2019-06-26T03:13:11.397Z,11.10
2019-06-26T03:15:16.205Z,12.27
2019-06-26T03:17:20.981Z,10.87
2019-06-26T03:19:25.740Z,10.83
2019-06-26T03:21:30.510Z,11.40
2019-06-26T03:23:35.295Z,11.70
2019-06-26T03:25:39.972Z,11.43
2019-06-26T03:27:44.741Z,11.03
2019-06-26T03:29:49.543Z,10.40
2019-06-26T03:31:54.287Z,12.67
2019-06-26T03:33:59.742Z,11.00
2019-06-26T03:36:04.580Z,11.77
2019-06-26T03:38:10.323Z,10.90
2019-06-26T03:40:15.076Z,11.00
2019-06-26T03:42:19.871Z,10.83
2019-06-26T03:44:24.606Z,11.80
2019-06-26T03:46:29.355Z,12.20
2019-06-26T03:48:34.070Z,11.50
2019-06-26T03:50:38.765Z,11.00
2019-06-26T03:52:43.507Z,13.60
2019-06-26T03:54:48.281Z,12.27
2019-06-26T03:56:52.950Z,12.03
2019-06-26T03:58:57.643Z,11.60
2019-06-26T04:01:02.410Z,11.00
2019-06-26T04:03:07.089Z,11.17
2019-06-26T04:05:11.772Z,11.73
2019-06-26T04:07:16.475Z,10.83
2019-06-26T04:09:21.163Z,11.83
2019-06-26T04:11:25.917Z,10.77
2019-06-26T04:13:30.691Z,11.73
2019-06-26T04:15:42.015Z,12.60
2019-06-26T04:17:41.854Z,12.00
2019-06-26T04:19:46.585Z,11.97
2019-06-26T04:21:51.285Z,12.43
2019-06-26T04:23:55.963Z,12.03
2019-06-26T04:26:00.669Z,12.70
2019-06-26T04:28:06.607Z,11.60
2019-06-26T04:30:11.373Z,11.23
2019-06-26T04:32:16.114Z,11.57
2019-06-26T04:34:20.821Z,12.07
2019-06-26T04:36:25.563Z,11.20
2019-06-26T04:38:30.262Z,11.77
2019-06-26T04:40:35.051Z,12.23
2019-06-26T04:42:40.692Z,11.10
2019-06-26T04:44:45.455Z,10.97
2019-06-26T04:46:50.230Z,10.73
2019-06-26T04:48:54.994Z,10.10
2019-06-26T04:50:59.749Z,9.37
2019-06-26T04:53:04.536Z,10.53
2019-06-26T04:55:09.275Z,9.77
2019-06-26T04:57:14.019Z,9.67
2019-06-26T04:59:18.977Z,10.07
2019-06-26T05:01:23.789Z,10.07
2019-06-26T05:03:28.464Z,9.20
2019-06-26T05:05:39.739Z,9.27
2019-06-26T05:07:39.665Z,9.60
2019-06-26T05:09:45.429Z,10.37
2019-06-26T05:11:50.204Z,10.50
2019-06-26T05:13:54.954Z,9.23
2019-06-26T05:16:13.846Z,9.80
2019-06-26T05:18:06.047Z,10.43
2019-06-26T05:20:11.072Z,9.63
2019-06-26T05:22:15.748Z,10.27
2019-06-26T05:24:20.915Z,10.30
2019-06-26T05:26:25.671Z,10.57
2019-06-26T05:28:30.434Z,10.10
2019-06-26T05:30:35.210Z,10.27
2019-06-26T05:32:39.965Z,9.97
2019-06-26T05:34:44.679Z,11.23
2019-06-26T05:36:49.340Z,11.53
2019-06-26T05:38:54.028Z,11.87
2019-06-26T05:40:59.177Z,10.57
2019-06-26T05:43:03.934Z,10.57
2019-06-26T05:45:08.858Z,12.07
2019-06-26T05:47:13.644Z,12.13
2019-06-26T05:49:18.315Z,11.13
2019-06-26T05:51:23.012Z,13.27
2019-06-26T05:53:27.897Z,11.40
2019-06-26T05:55:32.575Z,10.60
2019-06-26T05:57:37.320Z,11.13
2019-06-26T05:59:42.016Z,11.73
2019-06-26T06:01:46.792Z,11.87
2019-06-26T06:03:51.623Z,12.07
2019-06-26T06:05:56.339Z,12.53
2019-06-26T06:08:01.099Z,12.20
2019-06-26T06:10:06.398Z,12.70
2019-06-26T06:12:11.168Z,10.80
2019-06-26T06:14:15.910Z,13.40
2019-06-26T06:16:20.653Z,11.50
2019-06-26T06:18:25.343Z,11.83
2019-06-26T06:20:36.040Z,11.50
2019-06-26T06:22:40.966Z,11.60
2019-06-26T06:24:45.809Z,11.93
2019-06-26T06:26:50.573Z,11.93
2019-06-26T06:28:55.333Z,12.37
2019-06-26T06:31:00.462Z,13.80
2019-06-26T06:33:05.461Z,11.97
2019-06-26T06:35:10.206Z,12.73
2019-06-26T06:37:14.897Z,13.93
2019-06-26T06:39:19.593Z,12.73
2019-06-26T06:41:24.306Z,12.53
2019-06-26T06:43:29.081Z,13.30
2019-06-26T06:45:33.819Z,12.67
2019-06-26T06:47:38.509Z,13.27
2019-06-26T06:49:44.747Z,14.07
2019-06-26T06:51:49.565Z,12.77
2019-06-26T06:53:54.280Z,12.70
2019-06-26T06:55:59.033Z,11.83
2019-06-26T06:58:03.815Z,14.23
2019-06-26T07:00:08.491Z,12.83
2019-06-26T07:02:13.303Z,11.73
2019-06-26T07:04:18.011Z,13.63
2019-06-26T07:06:22.697Z,11.70
2019-06-26T07:08:27.504Z,12.20
2019-06-26T07:10:32.209Z,12.90
2019-06-26T07:12:36.880Z,12.30
2019-06-26T07:14:41.653Z,13.70
2019-06-26T07:16:46.391Z,13.53
2019-06-26T07:18:51.108Z,14.27
2019-06-26T07:20:55.825Z,14.20
2019-06-26T07:23:00.577Z,13.47
2019-06-26T07:25:05.535Z,12.83
2019-06-26T07:27:10.317Z,13.60
2019-06-26T07:29:15.032Z,12.70
2019-06-26T07:31:19.791Z,14.03
2019-06-26T07:33:24.549Z,14.37
2019-06-26T07:35:48.738Z,13.37
2019-06-26T07:37:53.527Z,13.23
2019-06-26T07:40:01.926Z,15.80
2019-06-26T07:42:04.588Z,13.60
2019-06-26T07:44:09.307Z,13.67
2019-06-26T07:46:14.038Z,14.47
2019-06-26T07:48:18.761Z,15.73
2019-06-26T07:50:23.453Z,15.30
2019-06-26T07:52:28.126Z,14.67
2019-06-26T07:54:32.900Z,14.53
2019-06-26T07:56:37.582Z,14.50
2019-06-26T07:58:42.376Z,14.83
2019-06-26T08:00:47.111Z,15.50
2019-06-26T08:02:51.795Z,15.20
2019-06-26T08:04:56.595Z,14.77
2019-06-26T08:07:01.437Z,18.17
2019-06-26T08:09:06.668Z,16.03
2019-06-26T08:11:11.435Z,16.33
2019-06-26T08:13:16.184Z,17.83
2019-06-26T08:15:20.907Z,15.53
2019-06-26T08:17:25.582Z,17.60
2019-06-26T08:19:30.343Z,15.17
2019-06-26T08:21:35.198Z,16.03
2019-06-26T08:23:39.864Z,16.17
2019-06-26T08:25:44.549Z,15.37
2019-06-26T08:27:49.848Z,13.57
2019-06-26T08:29:55.543Z,16.40
2019-06-26T08:32:00.241Z,16.03
2019-06-26T08:34:05.011Z,15.43
2019-06-26T08:36:09.701Z,15.70
2019-06-26T08:38:15.843Z,14.97
2019-06-26T08:40:20.746Z,15.70
2019-06-26T08:42:25.491Z,17.90
2019-06-26T08:44:30.262Z,15.80
2019-06-26T08:46:35.241Z,16.50
2019-06-26T08:48:40.829Z,15.93
2019-06-26T08:50:47.447Z,15.60
2019-06-26T08:52:52.257Z,14.67
2019-06-26T08:54:57.022Z,14.77
2019-06-26T08:57:01.720Z,15.70
2019-06-26T08:59:06.509Z,14.27
2019-06-26T09:01:11.301Z,17.17
2019-06-26T09:03:16.052Z,15.00
2019-06-26T09:05:20.836Z,15.80
2019-06-26T09:07:25.581Z,14.87
2019-06-26T09:09:30.255Z,14.47
2019-06-26T09:11:36.082Z,16.77
2019-06-26T09:13:40.903Z,16.20
2019-06-26T09:15:49.621Z,12.43
2019-06-26T09:17:52.077Z,13.30
2019-06-26T09:19:56.862Z,14.43
2019-06-26T09:22:01.619Z,13.83
2019-06-26T09:24:06.370Z,13.83
2019-06-26T09:26:11.109Z,13.77
2019-06-26T09:28:15.862Z,13.20
2019-06-26T09:30:20.650Z,12.30
2019-06-26T09:32:26.082Z,12.27
2019-06-26T09:34:30.837Z,11.80
2019-06-26T09:36:35.624Z,10.77
2019-06-26T09:38:40.378Z,10.93
2019-06-26T09:40:45.061Z,12.40
2019-06-26T09:42:49.760Z,12.50
2019-06-26T09:44:54.511Z,11.50
2019-06-26T09:46:59.286Z,11.40
2019-06-26T09:49:05.132Z,12.60
2019-06-26T09:51:09.872Z,12.33
2019-06-26T09:53:14.702Z,12.40
2019-06-26T09:55:19.604Z,11.23
2019-06-26T09:57:24.273Z,11.57
2019-06-26T09:59:28.952Z,11.63
2019-06-26T10:01:33.793Z,11.43
2019-06-26T10:03:38.562Z,10.67
2019-06-26T10:05:43.321Z,10.87
2019-06-26T10:07:48.032Z,11.43
2019-06-26T10:09:52.796Z,12.63
2019-06-26T10:11:57.543Z,11.70
2019-06-26T10:14:02.361Z,10.50
2019-06-26T10:16:07.088Z,9.80
2019-06-26T10:18:11.760Z,9.93
2019-06-26T10:20:16.475Z,11.03
2019-06-26T10:22:21.275Z,10.47
2019-06-26T10:24:25.961Z,11.37
2019-06-26T10:26:32.564Z,10.50
2019-06-26T10:28:37.056Z,10.90
2019-06-26T10:30:42.776Z,11.60
2019-06-26T10:32:47.546Z,11.57
2019-06-26T10:34:52.308Z,11.10
2019-06-26T10:36:57.083Z,9.77
2019-06-26T10:39:01.890Z,10.57
2019-06-26T10:41:08.347Z,11.33
2019-06-26T10:43:13.098Z,10.33
2019-06-26T10:45:17.945Z,10.77
2019-06-26T10:47:22.699Z,10.70
2019-06-26T10:49:28.072Z,11.43
2019-06-26T10:51:32.865Z,11.20
2019-06-26T10:53:37.613Z,11.60
2019-06-26T10:55:42.369Z,9.90
2019-06-26T10:57:47.215Z,10.90
2019-06-26T10:59:55.484Z,10.60
2019-06-26T11:01:58.352Z,13.57
2019-06-26T11:04:03.166Z,12.80
2019-06-26T11:06:07.919Z,10.83
2019-06-26T11:08:12.611Z,11.13
2019-06-26T11:10:17.316Z,12.83
2019-06-26T11:12:22.015Z,11.07
2019-06-26T11:14:26.768Z,11.33
2019-06-26T11:16:31.707Z,13.60
2019-06-26T11:18:36.390Z,12.13
2019-06-26T11:20:41.426Z,12.67
2019-06-26T11:22:46.201Z,11.10
2019-06-26T11:24:50.968Z,11.50
2019-06-26T11:26:55.772Z,10.83
2019-06-26T11:29:00.553Z,10.53
2019-06-26T11:31:05.246Z,10.53
2019-06-26T11:33:10.005Z,11.50
2019-06-26T11:35:15.909Z,9.33
2019-06-26T11:37:22.963Z,11.40
2019-06-26T11:39:27.058Z,10.33
2019-06-26T11:41:31.745Z,11.07
2019-06-26T11:43:36.423Z,13.77
2019-06-26T11:45:41.153Z,12.70
2019-06-26T11:47:46.174Z,12.73
2019-06-26T11:49:59.892Z,15.47
2019-06-26T11:51:57.389Z,12.07
2019-06-26T11:54:02.135Z,12.67
2019-06-26T11:56:06.878Z,13.63
2019-06-26T11:58:11.671Z,12.63
2019-06-26T12:00:18.613Z,14.23
2019-06-26T12:02:23.407Z,16.30
2019-06-26T12:04:28.096Z,16.43
2019-06-26T12:06:32.881Z,15.47
2019-06-26T12:08:37.666Z,14.77
2019-06-26T12:10:42.433Z,16.17
2019-06-26T12:12:47.186Z,19.40
2019-06-26T12:14:51.995Z,17.57
2019-06-26T12:16:56.816Z,17.53
2019-06-26T12:19:01.505Z,15.80
2019-06-26T12:21:06.303Z,17.47
2019-06-26T12:23:11.211Z,19.83
2019-06-26T12:25:15.963Z,19.17
2019-06-26T12:27:20.730Z,18.10
2019-06-26T12:29:25.405Z,17.67
2019-06-26T12:31:30.164Z,15.63
2019-06-26T12:33:35.914Z,16.30
2019-06-26T12:35:40.693Z,16.80
2019-06-26T12:37:45.695Z,17.20
2019-06-26T12:39:50.416Z,20.83
2019-06-26T12:41:55.187Z,17.00
2019-06-26T12:43:59.972Z,18.47
2019-06-26T12:46:05.081Z,17.50
2019-06-26T12:48:09.816Z,18.63
2019-06-26T12:50:14.563Z,17.33
2019-06-26T12:52:19.302Z,18.43
2019-06-26T12:54:24.043Z,18.03
2019-06-26T12:56:28.817Z,20.30
2019-06-26T12:58:33.586Z,19.83
2019-06-26T13:00:38.372Z,18.80
2019-06-26T13:02:43.037Z,16.50
2019-06-26T13:04:47.709Z,16.27
2019-06-26T13:06:52.422Z,20.63
2019-06-26T13:08:57.098Z,17.10
2019-06-26T13:11:01.857Z,17.97
2019-06-26T13:13:06.619Z,16.93
2019-06-26T13:15:11.376Z,18.57
2019-06-26T13:17:16.121Z,17.47
2019-06-26T13:19:20.914Z,20.67
2019-06-26T13:21:25.635Z,17.17
2019-06-26T13:23:30.315Z,14.50
2019-06-26T13:25:35.110Z,15.17
2019-06-26T13:27:39.800Z,14.47
2019-06-26T13:29:44.497Z,13.67
2019-06-26T13:31:49.289Z,13.38
2019-06-26T13:33:54.243Z,12.53
2019-06-26T13:35:58.992Z,13.20
2019-06-26T13:38:03.674Z,14.10
2019-06-26T13:40:08.518Z,15.03
2019-06-26T13:42:13.267Z,14.40
2019-06-26T13:44:18.015Z,13.57
2019-06-26T13:46:22.861Z,12.30
2019-06-26T13:48:27.623Z,12.47
2019-06-26T13:50:32.302Z,10.40
2019-06-26T13:52:37.082Z,9.10
2019-06-26T13:54:41.825Z,9.83
2019-06-26T13:56:46.573Z,9.38
2019-06-26T13:58:52.380Z,10.03
2019-06-26T14:00:57.113Z,8.57
2019-06-26T14:03:01.871Z,7.75
2019-06-26T14:05:08.276Z,7.80
2019-06-26T14:07:13.991Z,8.90
2019-06-26T14:09:18.664Z,8.25
2019-06-26T14:11:23.431Z,8.60
2019-06-26T14:13:28.171Z,8.25
2019-06-26T14:15:32.844Z,7.10
2019-06-26T14:17:37.612Z,7.92
2019-06-26T14:19:42.275Z,6.47
2019-06-26T14:21:47.003Z,6.57
2019-06-26T14:23:51.777Z,5.60
2019-06-26T14:25:57.495Z,7.40
2019-06-26T14:28:02.289Z,6.45
2019-06-26T14:30:07.543Z,6.00
2019-06-26T14:32:12.282Z,5.87
2019-06-26T14:34:17.004Z,6.53
2019-06-26T14:36:23.377Z,6.00
2019-06-26T14:38:28.290Z,6.37
2019-06-26T14:40:33.072Z,6.35
2019-06-26T14:42:37.814Z,7.77
2019-06-26T14:44:42.556Z,7.75
2019-06-26T14:46:47.325Z,5.78
2019-06-26T14:48:51.985Z,5.77
2019-06-26T14:50:56.818Z,5.78
2019-06-26T14:53:01.597Z,5.22
2019-06-26T14:55:07.089Z,4.50
2019-06-26T14:57:11.791Z,5.50
2019-06-26T14:59:16.455Z,4.33
2019-06-26T15:01:21.110Z,5.20
2019-06-26T15:03:25.876Z,5.28
2019-06-26T15:05:30.562Z,5.33
2019-06-26T15:07:35.244Z,4.80
2019-06-26T15:09:40.011Z,4.75
2019-06-26T15:11:44.753Z,4.72
2019-06-26T15:13:49.512Z,4.67
2019-06-26T15:15:54.930Z,5.62
2019-06-26T15:17:59.830Z,4.90
2019-06-26T15:20:05.508Z,4.73
2019-06-26T15:22:10.223Z,5.05
2019-06-26T15:24:14.983Z,4.23
2019-06-26T15:26:19.721Z,4.33
2019-06-26T15:28:24.491Z,4.67
2019-06-26T15:30:29.242Z,4.37
2019-06-26T15:32:34.024Z,4.50
2019-06-26T15:34:38.769Z,4.10
2019-06-26T15:36:43.591Z,3.70
2019-06-26T15:38:48.269Z,3.75
2019-06-26T15:40:52.943Z,4.57
2019-06-26T15:42:57.653Z,4.80
2019-06-26T15:45:02.424Z,5.10
2019-06-26T15:47:07.245Z,5.22
2019-06-26T15:49:11.941Z,4.95
2019-06-26T15:51:16.624Z,5.10
2019-06-26T15:53:21.368Z,4.33
2019-06-26T15:55:26.045Z,4.13
2019-06-26T15:57:30.799Z,3.60
2019-06-26T15:59:35.460Z,3.77
2019-06-26T16:01:40.221Z,3.35
2019-06-26T16:03:44.903Z,3.50
2019-06-26T16:05:49.684Z,3.10
2019-06-26T16:07:55.418Z,3.20
2019-06-26T16:10:00.092Z,2.30
2019-06-26T16:12:04.861Z,2.13
2019-06-26T16:14:09.544Z,2.20
2019-06-26T16:16:14.339Z,1.95
2019-06-26T16:18:23.448Z,2.55
2019-06-26T16:20:28.126Z,2.43
2019-06-26T16:22:33.052Z,2.00
2019-06-26T16:24:37.862Z,1.60
2019-06-26T16:26:42.621Z,1.85
2019-06-26T16:28:47.347Z,1.90
2019-06-26T16:30:52.062Z,1.83
2019-06-26T16:32:57.115Z,1.50
2019-06-26T16:35:03.975Z,1.90
2019-06-26T16:37:08.716Z,1.90
2019-06-26T16:39:13.550Z,1.50
2019-06-26T16:41:18.212Z,1.60
2019-06-26T16:43:22.909Z,1.33
2019-06-26T16:45:27.604Z,1.30
2019-06-26T16:47:32.358Z,1.10
2019-06-26T16:49:38.110Z,1.40
2019-06-26T16:51:42.815Z,1.40
2019-06-26T16:53:47.564Z,1.40
2019-06-26T16:55:53.217Z,1.98
2019-06-26T16:57:58.194Z,1.50
2019-06-26T17:00:09.580Z,1.60
2019-06-26T17:02:11.074Z,1.40
2019-06-26T17:04:15.752Z,1.30
2019-06-26T17:06:20.525Z,1.27
2019-06-26T17:08:25.296Z,1.20
2019-06-26T17:10:30.062Z,1.30
2019-06-26T17:12:34.806Z,1.93
2019-06-26T17:14:39.664Z,1.60
2019-06-26T17:16:44.528Z,1.80
2019-06-26T17:18:49.485Z,2.00
2019-06-26T17:20:54.262Z,2.30
2019-06-26T17:23:05.747Z,2.80
2019-06-26T17:25:06.929Z,2.60
2019-06-26T17:27:11.712Z,3.40
2019-06-26T17:29:16.456Z,3.40
2019-06-26T17:31:21.207Z,2.77
2019-06-26T17:33:25.997Z,3.20
2019-06-26T17:35:31.796Z,2.70
2019-06-26T17:37:36.508Z,2.53
2019-06-26T17:39:41.277Z,1.93
2019-06-26T17:41:45.977Z,1.67
2019-06-26T17:43:50.691Z,1.60
2019-06-26T17:45:55.375Z,2.00
2019-06-26T17:48:00.091Z,1.33
2019-06-26T17:50:07.733Z,1.57
2019-06-26T17:52:12.461Z,1.43
2019-06-26T17:54:17.297Z,1.10
2019-06-26T17:56:22.017Z,1.30
2019-06-26T17:58:26.773Z,1.10
2019-06-26T18:00:34.750Z,1.20
2019-06-26T18:02:39.441Z,1.13
2019-06-26T18:04:44.116Z,1.13
2019-06-26T18:06:48.797Z,0.97
2019-06-26T18:08:53.579Z,0.90
2019-06-26T18:10:58.748Z,0.90
2019-06-26T18:13:03.517Z,0.70
2019-06-26T18:15:08.519Z,0.90
2019-06-26T18:17:21.926Z,0.90
2019-06-26T18:19:19.636Z,0.70
2019-06-26T18:21:24.324Z,0.60
2019-06-26T18:23:37.770Z,0.50
2019-06-26T18:25:35.433Z,0.63
2019-06-26T18:27:40.233Z,0.60
2019-06-26T18:29:44.942Z,0.70
2019-06-26T18:31:49.615Z,0.60
2019-06-26T18:33:54.414Z,0.60
2019-06-26T18:35:59.154Z,0.87
2019-06-26T18:38:03.818Z,0.80
2019-06-26T18:40:09.714Z,0.57
2019-06-26T18:42:33.811Z,1.10
2019-06-26T18:44:38.505Z,0.53
2019-06-26T18:46:43.244Z,0.60
2019-06-26T18:48:47.916Z,0.70
2019-06-26T18:50:52.680Z,0.60
2019-06-26T18:52:57.464Z,0.60
2019-06-26T18:55:02.249Z,0.67
2019-06-26T18:57:06.989Z,0.50
2019-06-26T18:59:11.678Z,0.73
2019-06-26T19:01:16.451Z,0.73
2019-06-26T19:03:21.335Z,0.80
2019-06-26T19:05:26.021Z,0.70
2019-06-26T19:07:30.696Z,0.40
2019-06-26T19:09:35.485Z,0.70
2019-06-26T19:11:40.259Z,0.80
2019-06-26T19:13:45.048Z,0.60
2019-06-26T19:15:49.865Z,0.63
2019-06-26T19:17:54.607Z,0.77
2019-06-26T19:19:59.429Z,0.60
2019-06-26T19:22:04.159Z,0.60
2019-06-26T19:24:10.555Z,0.80
2019-06-26T19:26:15.245Z,1.00
2019-06-26T19:28:22.992Z,0.73
2019-06-26T19:30:27.286Z,0.70
2019-06-26T19:32:32.017Z,0.60
2019-06-26T19:34:36.766Z,0.70
2019-06-26T19:36:49.997Z,1.00
2019-06-26T19:38:48.877Z,0.83
2019-06-26T19:40:53.549Z,0.80
2019-06-26T19:42:58.283Z,0.90
2019-06-26T19:45:03.515Z,1.10
2019-06-26T19:47:08.693Z,0.90
2019-06-26T19:49:13.521Z,1.20
2019-06-26T19:51:18.270Z,0.80
2019-06-26T19:53:23.041Z,0.80
2019-06-26T19:55:27.730Z,1.30
2019-06-26T19:57:32.506Z,1.10
2019-06-26T19:59:37.252Z,1.07
2019-06-26T20:01:41.966Z,0.80
2019-06-26T20:03:46.748Z,1.10
2019-06-26T20:05:51.421Z,1.03
2019-06-26T20:07:56.441Z,1.07
2019-06-26T20:10:02.059Z,0.83
2019-06-26T20:12:06.961Z,1.10
2019-06-26T20:14:11.698Z,0.90
2019-06-26T20:16:16.793Z,1.07
2019-06-26T20:18:21.539Z,1.00
2019-06-26T20:20:27.023Z,0.90
2019-06-26T20:22:31.760Z,0.80
2019-06-26T20:24:43.981Z,0.80
2019-06-26T20:26:42.877Z,1.07
2019-06-26T20:28:47.549Z,0.90
2019-06-26T20:30:52.627Z,0.80
2019-06-26T20:32:57.290Z,0.90
2019-06-26T20:35:02.048Z,0.97
2019-06-26T20:37:06.913Z,0.87
2019-06-26T20:39:11.657Z,0.90
2019-06-26T20:41:16.387Z,0.70
2019-06-26T20:43:21.165Z,0.80
2019-06-26T20:45:25.849Z,0.73
2019-06-26T20:47:30.587Z,0.60
2019-06-26T20:49:35.302Z,1.07
2019-06-26T20:51:40.020Z,1.20
2019-06-26T20:53:44.761Z,1.00
2019-06-26T20:56:08.889Z,0.80
2019-06-26T20:58:13.559Z,1.03
2019-06-26T21:00:22.442Z,1.23
2019-06-26T21:02:25.779Z,0.87
2019-06-26T21:04:30.503Z,0.97
2019-06-26T21:06:35.197Z,0.80
2019-06-26T21:08:39.916Z,0.70
2019-06-26T21:10:44.663Z,0.90
2019-06-26T21:12:49.416Z,0.83
2019-06-26T21:14:54.535Z,0.90
2019-06-26T21:16:59.230Z,1.10
2019-06-26T21:19:04.009Z,0.80
2019-06-26T21:21:08.754Z,1.10
2019-06-26T21:23:18.698Z,1.07
2019-06-26T21:25:20.052Z,1.00
2019-06-26T21:27:24.814Z,1.10
2019-06-26T21:29:29.600Z,1.10
2019-06-26T21:31:34.327Z,0.90
2019-06-26T21:33:39.096Z,0.90
2019-06-26T21:35:43.860Z,1.00
2019-06-26T21:37:48.570Z,1.20
2019-06-26T21:39:53.272Z,0.80
2019-06-26T21:41:58.014Z,1.07
2019-06-26T21:44:15.147Z,0.97
2019-06-26T21:46:19.888Z,0.87
2019-06-26T21:48:24.633Z,0.90
2019-06-26T21:50:29.471Z,1.00
2019-06-26T21:52:34.156Z,0.97
2019-06-26T21:54:38.894Z,0.80
2019-06-26T21:57:01.409Z,1.03
2019-06-26T21:59:24.320Z,0.90
2019-06-26T22:01:46.808Z,1.10
2019-06-26T22:04:10.028Z,0.90
2019-06-26T22:06:31.422Z,0.73
2019-06-26T22:08:40.698Z,1.00
2019-06-26T22:10:45.663Z,1.20
2019-06-26T22:12:50.486Z,1.10
2019-06-26T22:14:55.156Z,1.10
2019-06-26T22:16:59.907Z,0.90
2019-06-26T22:19:04.754Z,1.10
2019-06-26T22:21:09.688Z,0.90
2019-06-26T22:23:14.426Z,1.40
2019-06-26T22:25:19.120Z,1.03
2019-06-26T22:27:23.863Z,0.90
2019-06-26T22:29:28.632Z,1.00
2019-06-26T22:31:33.428Z,1.07
2019-06-26T22:33:38.118Z,1.20
2019-06-26T22:35:43.747Z,0.80
2019-06-26T22:37:48.835Z,0.80
2019-06-26T22:39:53.508Z,0.83
2019-06-26T22:41:59.274Z,1.13
2019-06-26T22:44:03.954Z,0.70
2019-06-26T22:46:08.681Z,0.80
2019-06-26T22:48:13.352Z,1.00
2019-06-26T22:50:18.067Z,0.90
2019-06-26T22:52:22.740Z,1.57
2019-06-26T22:54:27.489Z,1.20
2019-06-26T22:56:32.301Z,1.07
2019-06-26T22:58:38.096Z,1.13
2019-06-26T23:00:42.807Z,0.90
2019-06-26T23:02:47.540Z,1.00
2019-06-26T23:04:52.206Z,1.13
2019-06-26T23:06:56.904Z,0.90
2019-06-26T23:09:01.665Z,0.90
2019-06-26T23:11:07.641Z,1.00
2019-06-26T23:13:12.395Z,1.27
2019-06-26T23:15:17.139Z,1.30
2019-06-26T23:17:21.922Z,1.53
2019-06-26T23:19:26.663Z,1.00
2019-06-26T23:21:31.344Z,1.30
2019-06-26T23:23:37.031Z,0.80
2019-06-26T23:25:41.787Z,1.20
2019-06-26T23:27:46.551Z,1.20
2019-06-26T23:29:51.215Z,0.87
2019-06-26T23:31:56.082Z,1.00
2019-06-26T23:34:00.833Z,1.00
2019-06-26T23:36:05.499Z,1.33
2019-06-26T23:38:10.202Z,1.13
2019-06-26T23:40:15.546Z,0.90
2019-06-26T23:42:20.304Z,0.90
2019-06-26T23:44:25.024Z,1.30
2019-06-26T23:46:29.726Z,0.80
2019-06-26T23:48:34.396Z,0.93
2019-06-26T23:50:39.141Z,0.93
2019-06-26T23:52:43.923Z,0.73
2019-06-26T23:54:48.663Z,0.97
2019-06-26T23:56:53.334Z,1.03
2019-06-26T23:58:58.018Z,1.10
